createdAt,value
2023-05-04T00:01:11.123Z,3.47
2023-05-04T00:03:39.849Z,4.03
2023-05-04T00:06:08.507Z,2.90
2023-05-04T00:08:36.889Z,2.77
2023-05-04T00:11:07.080Z,3.10
2023-05-04T00:13:35.517Z,2.90
2023-05-04T00:16:03.915Z,2.80
2023-05-04T00:18:32.376Z,3.07
2023-05-04T00:21:00.754Z,3.13
2023-05-04T00:23:29.209Z,3.60
2023-05-04T00:26:00.167Z,3.20
2023-05-04T00:28:30.122Z,3.03
2023-05-04T00:30:58.504Z,3.10
2023-05-04T00:33:27.004Z,3.87
2023-05-04T00:35:55.341Z,2.93
2023-05-04T00:38:23.802Z,4.03
2023-05-04T00:40:52.219Z,2.93
2023-05-04T00:43:20.650Z,2.73
2023-05-04T00:45:50.514Z,3.20
2023-05-04T00:48:19.045Z,3.03
2023-05-04T00:50:47.423Z,3.53
2023-05-04T00:53:15.860Z,3.60
2023-05-04T00:55:44.332Z,3.83
2023-05-04T00:58:12.913Z,3.00
2023-05-04T01:00:42.668Z,3.30
2023-05-04T01:03:12.738Z,3.27
2023-05-04T01:05:54.716Z,3.30
2023-05-04T01:08:32.717Z,3.63
2023-05-04T01:11:10.918Z,3.57
2023-05-04T01:13:40.662Z,3.40
2023-05-04T01:16:09.343Z,3.30
2023-05-04T01:18:39.138Z,3.73
2023-05-04T01:21:07.601Z,3.53
2023-05-04T01:23:37.465Z,3.43
2023-05-04T01:26:15.668Z,3.30
2023-05-04T01:28:51.795Z,3.20
2023-05-04T01:31:24.540Z,3.70
2023-05-04T01:33:54.497Z,3.80
2023-05-04T01:36:23.866Z,3.53
2023-05-04T01:38:56.810Z,3.80
2023-05-04T01:41:25.294Z,3.57
2023-05-04T01:43:54.596Z,3.20
2023-05-04T01:46:23.030Z,3.43
2023-05-04T01:48:51.473Z,3.93
2023-05-04T01:51:19.844Z,3.50
2023-05-04T01:53:48.260Z,3.83
2023-05-04T01:56:18.709Z,3.57
2023-05-04T01:58:47.063Z,3.77
2023-05-04T02:01:15.705Z,3.63
2023-05-04T02:03:44.689Z,3.43
2023-05-04T02:06:13.266Z,4.17
2023-05-04T02:08:41.675Z,3.90
2023-05-04T02:11:10.058Z,3.80
2023-05-04T02:13:39.790Z,3.87
2023-05-04T02:16:08.941Z,3.50
2023-05-04T02:18:37.347Z,4.10
2023-05-04T02:21:05.648Z,4.20
2023-05-04T02:23:34.062Z,3.87
2023-05-04T02:26:02.765Z,4.60
2023-05-04T02:28:31.427Z,3.80
2023-05-04T02:31:01.147Z,3.73
2023-05-04T02:33:29.761Z,4.30
2023-05-04T02:35:58.132Z,4.30
2023-05-04T02:38:27.303Z,4.47
2023-05-04T02:40:55.797Z,4.20
2023-05-04T02:43:26.849Z,4.20
2023-05-04T02:45:55.302Z,4.13
2023-05-04T02:48:26.135Z,4.30
2023-05-04T02:50:54.775Z,4.20
2023-05-04T02:53:23.264Z,4.10
2023-05-04T02:55:51.646Z,4.40
2023-05-04T02:58:20.228Z,4.43
2023-05-04T03:00:48.648Z,5.20
2023-05-04T03:03:16.985Z,4.40
2023-05-04T03:05:46.638Z,5.17
2023-05-04T03:08:15.022Z,4.33
2023-05-04T03:10:43.373Z,4.20
2023-05-04T03:13:11.833Z,4.43
2023-05-04T03:15:40.885Z,4.30
2023-05-04T03:18:09.576Z,4.07
2023-05-04T03:20:38.932Z,5.10
2023-05-04T03:23:10.425Z,4.50
2023-05-04T03:25:38.821Z,4.87
2023-05-04T03:28:07.319Z,4.70
2023-05-04T03:30:35.663Z,4.53
2023-05-04T03:33:04.784Z,4.83
2023-05-04T03:35:33.800Z,4.70
2023-05-04T03:38:03.871Z,5.20
2023-05-04T03:40:33.703Z,4.70
2023-05-04T03:43:02.397Z,4.83
2023-05-04T03:45:30.967Z,4.97
2023-05-04T03:47:59.835Z,6.30
2023-05-04T03:50:29.231Z,5.00
2023-05-04T03:52:57.630Z,5.50
2023-05-04T03:55:28.336Z,5.70
2023-05-04T03:57:58.044Z,4.83
2023-05-04T04:00:27.721Z,5.07
2023-05-04T04:03:04.341Z,4.70
2023-05-04T04:05:32.792Z,4.93
2023-05-04T04:08:01.293Z,4.60
2023-05-04T04:10:29.745Z,4.67
2023-05-04T04:12:59.502Z,4.93
2023-05-04T04:15:28.127Z,5.43
2023-05-04T04:17:56.562Z,4.73
2023-05-04T04:20:24.970Z,5.60
2023-05-04T04:22:53.522Z,4.70
2023-05-04T04:25:22.716Z,4.63
2023-05-04T04:27:51.290Z,5.53
2023-05-04T04:30:21.805Z,4.47
2023-05-04T04:32:50.638Z,4.63
2023-05-04T04:35:19.005Z,5.07
2023-05-04T04:37:47.407Z,4.90
2023-05-04T04:40:15.965Z,5.27
2023-05-04T04:42:44.339Z,5.00
2023-05-04T04:45:14.887Z,4.80
2023-05-04T04:47:45.348Z,4.50
2023-05-04T04:50:14.121Z,5.40
2023-05-04T04:52:42.523Z,4.80
2023-05-04T04:55:11.354Z,6.43
2023-05-04T04:57:39.725Z,5.10
2023-05-04T05:00:10.477Z,4.73
2023-05-04T05:02:38.977Z,4.60
2023-05-04T05:05:10.033Z,5.57
2023-05-04T05:07:38.582Z,6.43
2023-05-04T05:10:09.592Z,5.93
2023-05-04T05:12:37.957Z,5.23
2023-05-04T05:15:07.538Z,5.37
2023-05-04T05:17:37.551Z,5.20
2023-05-04T05:20:11.297Z,5.00
2023-05-04T05:22:40.353Z,4.87
2023-05-04T05:25:09.784Z,5.57
2023-05-04T05:27:38.344Z,5.20
2023-05-04T05:30:08.414Z,5.47
2023-05-04T05:32:37.000Z,6.30
2023-05-04T05:35:06.537Z,4.83
2023-05-04T05:37:36.319Z,5.23
2023-05-04T05:40:07.971Z,5.13
2023-05-04T05:42:36.849Z,6.00
2023-05-04T05:45:06.091Z,4.97
2023-05-04T05:47:34.546Z,5.30
2023-05-04T05:50:03.136Z,5.10
2023-05-04T05:52:31.598Z,5.70
2023-05-04T05:55:02.646Z,5.63
2023-05-04T05:57:31.256Z,5.60
2023-05-04T05:59:59.607Z,5.20
2023-05-04T06:02:28.100Z,4.90
2023-05-04T06:04:56.698Z,5.20
2023-05-04T06:07:25.191Z,5.90
2023-05-04T06:09:53.525Z,5.90
2023-05-04T06:12:23.333Z,5.53
2023-05-04T06:14:51.764Z,4.97
2023-05-04T06:17:21.726Z,5.40
2023-05-04T06:19:51.300Z,4.60
2023-05-04T06:22:19.711Z,6.43
2023-05-04T06:24:48.099Z,5.37
2023-05-04T06:27:16.688Z,4.90
2023-05-04T06:29:46.661Z,4.80
2023-05-04T06:32:15.084Z,5.60
2023-05-04T06:34:43.469Z,4.63
2023-05-04T06:37:13.553Z,5.57
2023-05-04T06:39:43.191Z,5.17
2023-05-04T06:42:12.256Z,4.80
2023-05-04T06:44:42.207Z,6.10
2023-05-04T06:47:12.473Z,5.80
2023-05-04T06:49:41.093Z,5.20
2023-05-04T06:52:09.785Z,5.20
2023-05-04T06:54:40.187Z,5.20
2023-05-04T06:57:08.944Z,5.63
2023-05-04T06:59:37.404Z,5.50
2023-05-04T07:02:05.851Z,5.33
2023-05-04T07:04:35.911Z,5.60
2023-05-04T07:07:04.677Z,5.47
2023-05-04T07:09:33.394Z,5.20
2023-05-04T07:12:01.934Z,5.60
2023-05-04T07:14:30.409Z,5.30
2023-05-04T07:16:58.923Z,5.33
2023-05-04T07:19:27.607Z,5.30
2023-05-04T07:21:57.915Z,5.33
2023-05-04T07:24:30.725Z,5.40
2023-05-04T07:26:59.190Z,5.40
2023-05-04T07:29:27.651Z,5.23
2023-05-04T07:31:56.098Z,5.30
2023-05-04T07:34:34.046Z,5.30
2023-05-04T07:37:12.047Z,5.27
2023-05-04T07:39:40.537Z,5.30
2023-05-04T07:42:11.732Z,5.70
2023-05-04T07:44:41.303Z,5.50
2023-05-04T07:47:09.761Z,6.73
2023-05-04T07:49:38.149Z,5.37
2023-05-04T07:52:07.053Z,5.87
2023-05-04T07:54:37.075Z,6.03
2023-05-04T07:57:05.707Z,5.37
2023-05-04T07:59:34.599Z,5.70
2023-05-04T08:02:03.103Z,6.40
2023-05-04T08:04:31.713Z,6.70
2023-05-04T08:07:00.141Z,6.67
2023-05-04T08:09:28.722Z,6.50
2023-05-04T08:11:58.405Z,6.27
2023-05-04T08:14:26.815Z,6.13
2023-05-04T08:16:55.377Z,6.60
2023-05-04T08:19:23.825Z,6.07
2023-05-04T08:21:53.052Z,5.70
2023-05-04T08:24:21.470Z,6.63
2023-05-04T08:27:03.708Z,6.70
2023-05-04T08:29:37.450Z,7.10
2023-05-04T08:32:07.739Z,6.30
2023-05-04T08:34:36.768Z,6.37
2023-05-04T08:37:05.341Z,6.30
2023-05-04T08:39:33.689Z,6.30
2023-05-04T08:42:02.243Z,6.60
2023-05-04T08:44:31.288Z,6.80
2023-05-04T08:47:04.656Z,6.47
2023-05-04T08:49:33.458Z,6.90
2023-05-04T08:52:02.456Z,6.80
2023-05-04T08:54:30.871Z,6.60
2023-05-04T08:56:59.757Z,7.30
2023-05-04T08:59:30.074Z,6.13
2023-05-04T09:02:01.759Z,6.70
2023-05-04T09:04:32.280Z,6.43
2023-05-04T09:07:00.618Z,6.97
2023-05-04T09:09:31.431Z,6.77
2023-05-04T09:12:00.044Z,6.80
2023-05-04T09:14:35.566Z,7.30
2023-05-04T09:17:16.564Z,6.63
2023-05-04T09:19:45.855Z,6.53
2023-05-04T09:22:18.066Z,6.10
2023-05-04T09:24:47.047Z,7.10
2023-05-04T09:27:18.122Z,7.77
2023-05-04T09:29:55.358Z,5.97
2023-05-04T09:32:25.588Z,6.70
2023-05-04T09:34:56.712Z,6.20
2023-05-04T09:37:25.369Z,6.60
2023-05-04T09:39:55.584Z,6.00
2023-05-04T09:42:25.130Z,6.50
2023-05-04T09:45:02.254Z,5.70
2023-05-04T09:47:39.721Z,6.73
2023-05-04T09:50:19.842Z,5.70
2023-05-04T09:52:50.223Z,5.70
2023-05-04T09:55:20.844Z,6.80
2023-05-04T09:57:51.712Z,6.33
2023-05-04T10:00:21.269Z,6.40
2023-05-04T10:02:51.856Z,7.03
2023-05-04T10:05:21.811Z,6.33
2023-05-04T10:07:51.123Z,6.03
2023-05-04T10:10:19.533Z,5.77
2023-05-04T10:12:48.090Z,5.40
2023-05-04T10:15:18.612Z,5.77
2023-05-04T10:18:10.085Z,6.00
2023-05-04T10:21:01.298Z,5.27
2023-05-04T10:23:59.308Z,5.20
2023-05-04T10:26:47.221Z,5.40
2023-05-04T10:29:23.827Z,5.07
2023-05-04T10:31:53.734Z,4.67
2023-05-04T10:34:28.041Z,5.00
2023-05-04T10:36:57.399Z,5.00
2023-05-04T10:39:29.116Z,5.00
2023-05-04T10:41:59.721Z,5.50
2023-05-04T10:44:29.151Z,4.97
2023-05-04T10:47:02.971Z,4.60
2023-05-04T10:49:33.932Z,5.20
2023-05-04T10:52:16.158Z,5.10
2023-05-04T10:54:45.236Z,4.67
2023-05-04T10:57:17.079Z,4.30
2023-05-04T10:59:57.274Z,4.90
2023-05-04T11:02:27.140Z,5.77
2023-05-04T11:05:06.086Z,5.17
2023-05-04T11:07:37.617Z,4.50
2023-05-04T11:10:09.725Z,4.47
2023-05-04T11:12:39.717Z,4.63
2023-05-04T11:15:10.994Z,4.50
2023-05-04T11:17:47.523Z,4.77
2023-05-04T11:20:25.457Z,4.33
2023-05-04T11:22:54.705Z,4.47
2023-05-04T11:25:29.401Z,4.83
2023-05-04T11:27:58.434Z,4.00
2023-05-04T11:30:34.021Z,4.80
2023-05-04T11:33:05.237Z,4.03
2023-05-04T11:35:35.318Z,4.40
2023-05-04T11:38:04.019Z,3.70
2023-05-04T11:40:32.438Z,4.00
2023-05-04T11:43:01.795Z,4.93
2023-05-04T11:45:33.470Z,4.60
2023-05-04T11:48:02.598Z,4.23
2023-05-04T11:50:31.779Z,4.30
2023-05-04T11:53:09.690Z,4.47
2023-05-04T11:55:39.106Z,3.97
2023-05-04T11:58:09.868Z,4.30
2023-05-04T12:00:40.553Z,4.53
2023-05-04T12:03:12.883Z,4.60
2023-05-04T12:05:48.055Z,4.20
2023-05-04T12:08:30.447Z,3.87
2023-05-04T12:11:16.345Z,4.23
2023-05-04T12:13:46.003Z,4.53
2023-05-04T12:16:16.320Z,3.80
2023-05-04T12:18:45.475Z,3.80
2023-05-04T12:21:16.398Z,3.73
2023-05-04T12:23:47.590Z,4.40
2023-05-04T12:26:18.965Z,4.17
2023-05-04T12:28:48.601Z,3.90
2023-05-04T12:31:17.211Z,4.00
2023-05-04T12:33:46.560Z,4.03
2023-05-04T12:36:15.277Z,3.70
2023-05-04T12:38:46.322Z,3.47
2023-05-04T12:41:14.993Z,4.50
2023-05-04T12:43:44.011Z,4.33
2023-05-04T12:46:13.070Z,4.17
2023-05-04T12:48:41.486Z,3.70
2023-05-04T12:51:10.038Z,3.50
2023-05-04T12:53:38.497Z,4.43
2023-05-04T12:56:08.523Z,4.43
2023-05-04T12:58:37.016Z,4.10
2023-05-04T13:01:05.705Z,4.40
2023-05-04T13:03:34.268Z,4.47
2023-05-04T13:06:03.430Z,4.60
2023-05-04T13:08:32.648Z,4.67
2023-05-04T13:11:01.520Z,3.60
2023-05-04T13:13:31.420Z,5.00
2023-05-04T13:15:59.958Z,4.30
2023-05-04T13:18:29.983Z,4.77
2023-05-04T13:20:58.684Z,4.00
2023-05-04T13:23:27.138Z,4.70
2023-05-04T13:25:55.903Z,4.90
2023-05-04T13:28:24.268Z,5.33
2023-05-04T13:30:54.297Z,4.47
2023-05-04T13:35:58.125Z,4.70
2023-05-04T13:38:27.147Z,4.00
2023-05-04T13:40:55.930Z,4.67
2023-05-04T13:43:24.513Z,4.43
2023-05-04T13:45:56.189Z,4.00
2023-05-04T13:48:25.699Z,4.57
2023-05-04T13:50:54.170Z,4.70
2023-05-04T13:53:22.534Z,3.83
2023-05-04T13:55:50.847Z,4.37
2023-05-04T13:58:19.196Z,4.10
2023-05-04T14:00:47.549Z,4.03
2023-05-04T14:03:17.856Z,4.63
2023-05-04T14:05:46.395Z,4.70
2023-05-04T14:08:15.072Z,4.30
2023-05-04T14:10:43.525Z,4.30
2023-05-04T14:13:12.143Z,4.60
2023-05-04T14:15:40.666Z,4.40
2023-05-04T14:18:09.186Z,4.00
2023-05-04T14:20:39.004Z,4.60
2023-05-04T14:23:07.376Z,4.03
2023-05-04T14:25:35.826Z,3.70
2023-05-04T14:28:04.394Z,4.40
2023-05-04T14:30:34.390Z,4.50
2023-05-04T14:33:03.780Z,4.00
2023-05-04T14:35:32.407Z,5.13
2023-05-04T14:38:02.300Z,4.10
2023-05-04T14:40:30.861Z,4.10
2023-05-04T14:43:01.115Z,4.03
2023-05-04T14:45:29.534Z,4.00
2023-05-04T14:47:57.886Z,4.80
2023-05-04T14:50:26.610Z,4.00
2023-05-04T14:52:55.040Z,4.30
2023-05-04T14:55:24.819Z,4.17
2023-05-04T14:57:53.152Z,4.00
2023-05-04T15:00:23.042Z,4.17
2023-05-04T15:02:51.644Z,4.17
2023-05-04T15:05:20.192Z,4.03
2023-05-04T15:07:48.619Z,3.90
2023-05-04T15:10:17.325Z,4.60
2023-05-04T15:12:47.245Z,4.40
2023-05-04T15:15:15.867Z,3.87
2023-05-04T15:17:44.367Z,3.70
2023-05-04T15:20:14.606Z,4.20
2023-05-04T15:22:43.319Z,3.80
2023-05-04T15:25:12.180Z,4.03
2023-05-04T15:27:40.914Z,3.53
2023-05-04T15:30:11.756Z,4.10
2023-05-04T15:32:40.283Z,4.10
2023-05-04T15:35:09.455Z,3.27
2023-05-04T15:37:38.085Z,3.40
2023-05-04T15:40:08.738Z,3.13
2023-05-04T15:42:37.387Z,3.43
2023-05-04T15:45:08.673Z,3.93
2023-05-04T15:47:39.794Z,3.53
2023-05-04T15:50:09.467Z,3.30
2023-05-04T15:52:38.478Z,3.47
2023-05-04T15:55:23.507Z,3.90
2023-05-04T15:57:54.117Z,3.80
2023-05-04T16:00:23.592Z,3.47
2023-05-04T16:02:53.660Z,3.60
2023-05-04T16:05:22.250Z,3.40
2023-05-04T16:07:50.906Z,3.67
2023-05-04T16:10:19.502Z,3.67
2023-05-04T16:12:48.080Z,3.93
2023-05-04T16:15:16.896Z,3.63
2023-05-04T16:17:45.285Z,3.90
2023-05-04T16:20:15.128Z,3.63
2023-05-04T16:22:43.544Z,3.90
2023-05-04T16:25:12.004Z,3.40
2023-05-04T16:27:40.649Z,3.30
2023-05-04T16:30:11.054Z,3.30
2023-05-04T16:32:39.609Z,3.33
2023-05-04T16:35:09.352Z,3.23
2023-05-04T16:37:39.829Z,3.47
2023-05-04T16:40:16.491Z,3.40
2023-05-04T16:42:45.736Z,3.20
2023-05-04T16:45:15.696Z,2.70
2023-05-04T16:47:45.192Z,3.07
2023-05-04T16:50:15.020Z,3.60
2023-05-04T16:52:44.945Z,3.10
2023-05-04T16:55:13.349Z,3.50
2023-05-04T16:57:41.972Z,3.00
2023-05-04T17:00:13.344Z,2.90
2023-05-04T17:02:42.286Z,3.13
2023-05-04T17:05:11.481Z,3.40
2023-05-04T17:07:43.150Z,3.10
2023-05-04T17:10:14.461Z,3.43
2023-05-04T17:12:43.059Z,3.20
2023-05-04T17:15:12.981Z,3.20
2023-05-04T17:17:42.148Z,3.63
2023-05-04T17:20:14.917Z,2.60
2023-05-04T17:22:44.078Z,3.30
2023-05-04T17:25:14.946Z,3.70
2023-05-04T17:27:44.087Z,3.17
2023-05-04T17:30:14.190Z,3.43
2023-05-04T17:32:42.585Z,3.60
2023-05-04T17:35:21.068Z,4.00
2023-05-04T17:37:57.645Z,3.50
2023-05-04T17:40:28.882Z,3.57
2023-05-04T17:42:57.518Z,3.70
2023-05-04T17:45:26.464Z,3.53
2023-05-04T17:47:55.031Z,3.13
2023-05-04T17:50:23.806Z,3.40
2023-05-04T17:52:56.551Z,2.90
2023-05-04T17:55:25.481Z,3.40
2023-05-04T17:57:55.867Z,3.30
2023-05-04T18:00:24.919Z,3.60
2023-05-04T18:02:53.494Z,3.07
2023-05-04T18:05:21.930Z,3.60
2023-05-04T18:07:50.532Z,4.10
2023-05-04T18:10:19.096Z,3.57
2023-05-04T18:12:48.013Z,3.50
2023-05-04T18:15:18.481Z,3.33
2023-05-04T18:17:50.828Z,3.80
2023-05-04T18:20:19.704Z,3.00
2023-05-04T18:22:48.191Z,3.83
2023-05-04T18:25:16.567Z,3.23
2023-05-04T18:27:45.008Z,2.90
2023-05-04T18:30:13.753Z,3.50
2023-05-04T18:32:43.604Z,3.33
2023-05-04T18:35:12.195Z,3.10
2023-05-04T18:37:40.516Z,3.93
2023-05-04T18:40:10.952Z,3.10
2023-05-04T18:42:39.630Z,3.93
2023-05-04T18:45:10.394Z,3.80
2023-05-04T18:47:38.842Z,3.83
2023-05-04T18:50:10.911Z,3.77
2023-05-04T18:52:39.384Z,4.20
2023-05-04T18:55:08.596Z,4.20
2023-05-04T18:57:37.124Z,4.00
2023-05-04T19:00:07.698Z,3.40
2023-05-04T19:02:36.414Z,4.57
2023-05-04T19:05:05.091Z,3.93
2023-05-04T19:07:34.865Z,4.57
2023-05-04T19:10:04.082Z,4.03
2023-05-04T19:12:32.547Z,3.90
2023-05-04T19:15:01.094Z,4.13
2023-05-04T19:17:29.604Z,4.23
2023-05-04T19:19:58.037Z,3.93
2023-05-04T19:22:26.457Z,4.17
2023-05-04T19:24:56.335Z,4.43
2023-05-04T19:27:24.727Z,4.77
2023-05-04T19:29:53.102Z,4.40
2023-05-04T19:32:24.766Z,4.17
2023-05-04T19:34:53.775Z,5.00
2023-05-04T19:37:22.266Z,5.10
2023-05-04T19:39:50.936Z,4.27
2023-05-04T19:42:20.889Z,4.70
2023-05-04T19:44:49.254Z,4.07
2023-05-04T19:47:18.121Z,4.40
2023-05-04T19:49:48.495Z,4.80
2023-05-04T19:52:17.213Z,4.77
2023-05-04T19:54:48.316Z,4.27
2023-05-04T19:57:16.810Z,4.77
2023-05-04T19:59:47.251Z,4.53
2023-05-04T20:02:15.994Z,4.50
2023-05-04T20:04:44.501Z,5.00
2023-05-04T20:07:12.902Z,4.80
2023-05-04T20:09:41.688Z,4.30
2023-05-04T20:12:10.900Z,6.20
2023-05-04T20:14:40.599Z,6.10
2023-05-04T20:17:10.554Z,5.67
2023-05-04T20:19:40.710Z,6.17
2023-05-04T20:22:09.263Z,4.90
2023-05-04T20:24:37.595Z,4.90
2023-05-04T20:27:06.797Z,4.43
2023-05-04T20:29:35.846Z,5.27
2023-05-04T20:32:05.318Z,3.90
2023-05-04T20:34:35.818Z,4.80
2023-05-04T20:37:04.227Z,4.80
2023-05-04T20:39:32.813Z,6.30
2023-05-04T20:42:01.476Z,5.10
2023-05-04T20:44:29.893Z,5.07
2023-05-04T20:46:58.168Z,4.70
2023-05-04T20:49:26.738Z,4.37
2023-05-04T20:51:56.678Z,4.50
2023-05-04T20:54:25.425Z,4.73
2023-05-04T20:56:53.747Z,5.00
2023-05-04T20:59:22.019Z,5.30
2023-05-04T21:01:50.750Z,5.47
2023-05-04T21:04:19.195Z,4.50
2023-05-04T21:06:48.384Z,5.50
2023-05-04T21:09:18.284Z,5.00
2023-05-04T21:11:46.645Z,5.33
2023-05-04T21:14:15.295Z,5.10
2023-05-04T21:16:43.829Z,5.20
2023-05-04T21:19:12.197Z,5.37
2023-05-04T21:21:41.336Z,5.30
2023-05-04T21:24:13.307Z,5.30
2023-05-04T21:26:45.048Z,5.00
2023-05-04T21:29:13.912Z,5.33
2023-05-04T21:31:42.720Z,5.03
2023-05-04T21:34:11.504Z,5.53
2023-05-04T21:36:40.421Z,5.40
2023-05-04T21:39:09.304Z,4.60
2023-05-04T21:41:37.768Z,4.40
2023-05-04T21:44:07.569Z,5.00
2023-05-04T21:46:36.327Z,5.00
2023-05-04T21:49:04.783Z,5.10
2023-05-04T21:51:33.219Z,4.67
2023-05-04T21:54:02.172Z,4.63
2023-05-04T21:56:30.521Z,5.20
2023-05-04T21:58:58.927Z,4.83
2023-05-04T22:01:28.922Z,4.97
2023-05-04T22:03:57.511Z,5.10
2023-05-04T22:06:25.960Z,4.80
2023-05-04T22:08:54.445Z,5.43
2023-05-04T22:11:22.774Z,4.90
2023-05-04T22:13:51.197Z,5.17
2023-05-04T22:16:20.640Z,4.83
2023-05-04T22:18:50.634Z,4.50
2023-05-04T22:21:18.943Z,5.30
2023-05-04T22:23:47.375Z,4.83
2023-05-04T22:26:15.742Z,5.20
2023-05-04T22:28:44.113Z,5.00
2023-05-04T22:31:12.502Z,5.10
2023-05-04T22:33:40.905Z,5.20
2023-05-04T22:36:11.908Z,4.37
2023-05-04T22:38:40.273Z,5.10
2023-05-04T22:41:08.652Z,5.63
2023-05-04T22:43:37.287Z,5.30
2023-05-04T22:46:06.139Z,5.30
2023-05-04T22:48:34.542Z,4.47
2023-05-04T22:51:03.930Z,4.90
2023-05-04T22:53:33.660Z,5.67
2023-05-04T22:56:02.112Z,5.40
2023-05-04T22:58:30.482Z,5.10
2023-05-04T23:00:58.826Z,5.97
2023-05-04T23:03:27.307Z,5.97
2023-05-04T23:05:55.779Z,5.40
2023-05-04T23:08:24.116Z,5.43
2023-05-04T23:10:53.815Z,5.23
2023-05-04T23:13:22.111Z,5.70
2023-05-04T23:15:50.621Z,4.70
2023-05-04T23:18:19.023Z,4.80
2023-05-04T23:20:47.410Z,5.17
2023-05-04T23:23:15.773Z,4.70
2023-05-04T23:25:44.200Z,4.70
2023-05-04T23:28:13.929Z,4.63
2023-05-04T23:30:42.308Z,5.27
2023-05-04T23:33:10.665Z,4.40
2023-05-04T23:35:39.001Z,4.47
2023-05-04T23:38:07.411Z,5.50
2023-05-04T23:40:36.634Z,4.63
2023-05-04T23:43:04.998Z,4.70
2023-05-04T23:45:34.787Z,4.97
2023-05-04T23:48:03.243Z,4.70
2023-05-04T23:50:31.643Z,4.70
2023-05-04T23:53:00.056Z,4.40
2023-05-04T23:55:28.415Z,4.30
2023-05-04T23:57:56.836Z,4.30
